Time;durP1;ratioP1;P1;durP2;ratioP2;P2;SDS_P1;SDS_P2;PMS_P1;PMS_P2;Temp;Humidity;BMP_temperature;BMP_pressure;BME280_temperature;BME280_humidity;BME280_pressure;Samples;Min_cycle;Max_cycle;Signal;HPM_P1;HPM_P2
2022/08/30 00:03:00;;;;;;;6.93;4.35;;;16.10;99.90;;;;;;5031121;28;20067;-46
2022/08/30 00:05:28;;;;;;;8.70;4.90;;;16.10;99.90;;;;;;5033946;28;20048;-47
2022/08/30 00:07:54;;;;;;;6.97;5.03;;;16.10;99.90;;;;;;5048219;28;20137;-48
2022/08/30 00:10:20;;;;;;;5.88;4.65;;;16.10;99.90;;;;;;5034749;28;20167;-51
2022/08/30 00:12:47;;;;;;;8.45;4.57;;;16.10;99.90;;;;;;5041888;28;20045;-51
2022/08/30 00:15:14;;;;;;;7.35;4.45;;;16.10;99.90;;;;;;5037066;28;20375;-49
2022/08/30 00:17:42;;;;;;;6.75;4.85;;;16.10;99.90;;;;;;5038986;28;20406;-47
2022/08/30 00:20:11;;;;;;;11.30;6.88;;;16.10;99.90;;;;;;5032061;28;20315;-50
2022/08/30 00:22:38;;;;;;;5.18;4.47;;;16.10;99.90;;;;;;5048722;28;20519;-50
2022/08/30 00:25:06;;;;;;;5.93;4.20;;;16.10;99.90;;;;;;5031683;28;20137;-50
2022/08/30 00:27:32;;;;;;;7.47;4.70;;;16.00;99.90;;;;;;5034746;28;20417;-49
2022/08/30 00:29:58;;;;;;;7.45;4.72;;;16.10;99.90;;;;;;5035821;28;20584;-50
2022/08/30 00:32:24;;;;;;;6.00;4.40;;;16.10;99.90;;;;;;5046257;28;20044;-56
2022/08/30 00:34:51;;;;;;;6.82;4.40;;;16.10;99.90;;;;;;5048325;28;20103;-57
2022/08/30 00:37:18;;;;;;;6.68;4.00;;;16.10;99.90;;;;;;5034162;28;20314;-57
2022/08/30 00:39:45;;;;;;;6.80;4.57;;;16.10;99.90;;;;;;5029214;28;20048;-53
2022/08/30 00:42:12;;;;;;;7.93;4.78;;;16.10;99.90;;;;;;5029990;28;20106;-47
2022/08/30 00:44:40;;;;;;;7.15;4.45;;;16.10;99.90;;;;;;5040788;28;20057;-50
2022/08/30 00:47:07;;;;;;;5.65;4.40;;;16.10;99.90;;;;;;5022802;28;20060;-49
2022/08/30 00:49:35;;;;;;;7.28;4.68;;;16.10;99.90;;;;;;5024891;28;20415;-47
2022/08/30 00:52:02;;;;;;;7.20;4.45;;;16.10;99.90;;;;;;5039597;28;20527;-51
2022/08/30 00:54:30;;;;;;;6.20;4.00;;;16.00;99.90;;;;;;5032047;28;20048;-50
2022/08/30 00:56:56;;;;;;;7.47;5.00;;;16.00;99.90;;;;;;5035737;28;20115;-48
2022/08/30 00:59:24;;;;;;;6.10;5.07;;;15.90;99.90;;;;;;5016658;28;20051;-58
2022/08/30 01:01:51;;;;;;;7.60;4.93;;;16.00;99.90;;;;;;5034619;28;20829;-57
2022/08/30 01:04:20;;;;;;;5.80;4.53;;;16.00;99.90;;;;;;5015840;28;20057;-57
2022/08/30 01:06:46;;;;;;;9.77;5.28;;;16.00;99.90;;;;;;5034627;28;20052;-57
2022/08/30 01:09:13;;;;;;;7.88;5.07;;;15.90;99.90;;;;;;5045069;28;20051;-57
2022/08/30 01:11:41;;;;;;;9.00;5.32;;;15.90;99.90;;;;;;5033451;28;20084;-57
2022/08/30 01:14:10;;;;;;;6.90;4.35;;;15.90;99.90;;;;;;5041407;28;20621;-57
2022/08/30 01:16:38;;;;;;;7.07;4.82;;;15.80;99.90;;;;;;5019289;28;20448;-57
2022/08/30 01:19:13;;;;;;;7.38;5.07;;;15.80;99.90;;;;;;5016599;28;20411;-57
2022/08/30 01:21:51;;;;;;;7.32;4.85;;;15.80;99.90;;;;;;5029834;28;20048;-57
2022/08/30 01:24:18;;;;;;;6.22;4.20;;;15.70;99.90;;;;;;5044640;28;20545;-58
2022/08/30 01:26:44;;;;;;;6.85;4.93;;;15.70;99.90;;;;;;5042808;28;20862;-57
2022/08/30 01:29:16;;;;;;;6.68;4.55;;;15.80;99.90;;;;;;5033918;28;20552;-57
2022/08/30 01:31:42;;;;;;;;;;;15.70;99.90;;;;;;5047713;28;20073;-56
2022/08/30 01:34:08;;;;;;;11.45;5.32;;;15.70;99.90;;;;;;5039468;28;20317;-57
2022/08/30 01:36:37;;;;;;;7.70;4.78;;;15.60;99.90;;;;;;5031288;28;20500;-57
2022/08/30 01:39:04;;;;;;;9.50;5.78;;;15.60;99.90;;;;;;5028837;28;20106;-62
2022/08/30 01:41:33;;;;;;;7.60;5.35;;;15.60;99.90;;;;;;5023369;28;20040;-56
2022/08/30 01:44:03;;;;;;;6.63;5.55;;;15.60;99.90;;;;;;5026866;28;20044;-57
2022/08/30 01:46:34;;;;;;;10.10;6.10;;;15.60;99.90;;;;;;5026992;28;20483;-57
2022/08/30 01:49:02;;;;;;;;;;;15.60;99.90;;;;;;5040598;28;20488;-59
2022/08/30 01:51:29;;;;;;;10.25;5.03;;;15.60;99.90;;;;;;5028443;28;19946;-57
2022/08/30 01:53:57;;;;;;;7.05;5.57;;;15.50;99.90;;;;;;5026249;28;20158;-57
2022/08/30 01:56:24;;;;;;;8.15;5.18;;;15.50;99.90;;;;;;5047811;28;20398;-56
2022/08/30 01:58:52;;;;;;;5.93;5.00;;;15.50;99.90;;;;;;5021801;28;20135;-57
2022/08/30 02:01:21;;;;;;;8.10;6.22;;;15.50;99.90;;;;;;5044019;28;20394;-58
2022/08/30 02:03:47;;;;;;;7.57;5.68;;;15.50;99.90;;;;;;5051914;28;20455;-58
2022/08/30 02:06:16;;;;;;;9.43;6.05;;;15.50;99.90;;;;;;5031566;28;20090;-57
2022/08/30 02:08:43;;;;;;;7.88;5.65;;;15.50;99.90;;;;;;5036160;28;20205;-57
2022/08/30 02:11:10;;;;;;;8.23;5.45;;;15.40;99.90;;;;;;5035219;28;20052;-57
2022/08/30 02:13:38;;;;;;;11.30;5.43;;;15.40;99.90;;;;;;5049530;28;20067;-57
2022/08/30 02:16:07;;;;;;;8.68;5.70;;;15.30;99.90;;;;;;5015161;28;20051;-49
2022/08/30 02:18:35;;;;;;;9.77;5.88;;;15.30;99.90;;;;;;5035392;28;20091;-51
2022/08/30 02:21:02;;;;;;;11.48;5.82;;;15.30;99.90;;;;;;5045236;28;20045;-57
2022/08/30 02:23:28;;;;;;;11.88;6.03;;;15.20;99.90;;;;;;5044138;28;20094;-48
2022/08/30 02:25:57;;;;;;;7.75;5.45;;;15.20;99.90;;;;;;5036042;28;20045;-45
2022/08/30 02:28:24;;;;;;;8.57;6.03;;;15.10;99.90;;;;;;5033681;28;20041;-48
2022/08/30 02:30:51;;;;;;;8.43;6.03;;;15.10;99.90;;;;;;5017455;28;20128;-46
2022/08/30 02:33:17;;;;;;;7.43;5.82;;;15.00;99.90;;;;;;5028204;28;20037;-57
2022/08/30 02:35:43;;;;;;;10.10;6.40;;;15.00;99.90;;;;;;5029955;28;20099;-57
2022/08/30 02:38:10;;;;;;;7.75;5.85;;;15.00;99.90;;;;;;5009265;28;20041;-57
2022/08/30 02:40:36;;;;;;;8.88;6.88;;;15.00;99.90;;;;;;5033932;28;20064;-57
2022/08/30 02:43:02;;;;;;;7.90;5.78;;;14.90;99.90;;;;;;5032756;28;20515;-57
2022/08/30 02:45:28;;;;;;;7.90;6.40;;;14.90;99.90;;;;;;5021286;28;20045;-58
2022/08/30 02:47:55;;;;;;;8.68;6.35;;;14.90;99.90;;;;;;4995724;28;20080;-51
2022/08/30 02:50:22;;;;;;;6.93;6.22;;;14.80;99.90;;;;;;5044226;28;20099;-50
2022/08/30 02:52:48;;;;;;;6.60;6.00;;;14.80;99.90;;;;;;5041154;28;20045;-51
2022/08/30 02:55:14;;;;;;;8.15;6.70;;;14.80;99.90;;;;;;5036715;28;20049;-50
2022/08/30 02:57:42;;;;;;;8.48;6.80;;;14.70;99.90;;;;;;5039847;28;20052;-50
2022/08/30 03:00:11;;;;;;;7.18;6.47;;;14.70;99.90;;;;;;5033122;28;20044;-50
2022/08/30 03:02:39;;;;;;;7.65;5.82;;;14.70;99.90;;;;;;5029012;28;20049;-58
2022/08/30 03:05:07;;;;;;;7.88;6.68;;;14.60;99.90;;;;;;5043430;28;20064;-57
2022/08/30 03:07:33;;;;;;;8.77;6.45;;;14.60;99.90;;;;;;5035241;28;20128;-56
2022/08/30 03:09:59;;;;;;;8.07;7.28;;;14.60;99.90;;;;;;5036299;28;20500;-56
2022/08/30 03:12:25;;;;;;;8.35;6.68;;;14.50;99.90;;;;;;5038367;28;20094;-56
2022/08/30 03:14:52;;;;;;;12.65;7.25;;;14.50;99.90;;;;;;5033783;28;21291;-57
2022/08/30 03:17:18;;;;;;;9.45;7.13;;;14.40;99.90;;;;;;5044875;28;20530;-50
2022/08/30 03:19:45;;;;;;;10.70;7.53;;;14.40;99.90;;;;;;5023983;28;20049;-47
2022/08/30 03:22:11;;;;;;;9.10;6.88;;;14.30;99.90;;;;;;5033857;28;21343;-47
2022/08/30 03:24:38;;;;;;;8.07;6.80;;;14.30;99.90;;;;;;5049402;28;20045;-47
2022/08/30 03:27:04;;;;;;;9.90;7.63;;;14.20;99.90;;;;;;5018741;28;20632;-52
2022/08/30 03:29:30;;;;;;;7.97;7.18;;;14.20;99.90;;;;;;5038144;28;20147;-46
2022/08/30 03:31:56;;;;;;;8.20;7.30;;;14.10;99.90;;;;;;5036156;28;20045;-48
2022/08/30 03:34:24;;;;;;;8.60;7.10;;;14.10;99.90;;;;;;5031231;28;20080;-56
2022/08/30 03:36:52;;;;;;;9.90;8.52;;;14.10;99.90;;;;;;5035041;28;20079;-57
2022/08/30 03:39:20;;;;;;;8.45;7.40;;;14.00;99.90;;;;;;5048034;28;20513;-56
2022/08/30 03:41:46;;;;;;;9.73;7.53;;;14.00;99.90;;;;;;5029944;28;20115;-55
2022/08/30 03:44:12;;;;;;;9.05;8.15;;;13.90;99.90;;;;;;5038136;28;20049;-56
2022/08/30 03:46:39;;;;;;;11.30;8.38;;;13.90;99.90;;;;;;5013710;28;20854;-57
2022/08/30 03:49:06;;;;;;;8.88;7.97;;;13.90;99.90;;;;;;5040134;28;20045;-57
2022/08/30 03:51:32;;;;;;;8.52;7.72;;;13.90;99.90;;;;;;5031014;28;20124;-57
2022/08/30 03:53:59;;;;;;;11.38;8.10;;;13.80;99.90;;;;;;5045101;28;20056;-57
2022/08/30 03:56:26;;;;;;;11.70;8.68;;;13.80;99.90;;;;;;5050149;28;20044;-57
2022/08/30 03:58:52;;;;;;;10.35;8.73;;;13.80;99.90;;;;;;5034990;28;20527;-57
2022/08/30 04:01:18;;;;;;;9.85;8.85;;;13.80;99.90;;;;;;5032006;28;20068;-46
2022/08/30 04:03:44;;;;;;;11.85;9.20;;;13.70;99.90;;;;;;5043940;28;20111;-45
2022/08/30 04:06:11;;;;;;;10.88;9.30;;;13.70;99.90;;;;;;5031442;28;20493;-57
2022/08/30 04:08:37;;;;;;;9.98;8.73;;;13.60;99.90;;;;;;5047935;28;20052;-49
2022/08/30 04:11:05;;;;;;;10.05;8.52;;;13.60;99.90;;;;;;5049704;28;20049;-58
2022/08/30 04:13:32;;;;;;;11.32;8.57;;;13.50;99.90;;;;;;5035056;28;20123;-57
2022/08/30 04:15:58;;;;;;;12.50;9.02;;;13.50;99.90;;;;;;5028634;28;20189;-57
2022/08/30 04:18:24;;;;;;;10.95;9.45;;;13.50;99.90;;;;;;5031684;28;20044;-56
2022/08/30 04:20:51;;;;;;;10.20;9.20;;;13.50;99.90;;;;;;5029860;28;20044;-56
2022/08/30 04:23:18;;;;;;;11.57;10.38;;;13.40;99.90;;;;;;5036856;28;20637;-56
2022/08/30 04:25:45;;;;;;;12.18;9.80;;;13.40;99.90;;;;;;5030949;28;20084;-57
2022/08/30 04:28:11;;;;;;;11.23;9.75;;;13.40;99.90;;;;;;5043632;28;20493;-56
2022/08/30 04:30:39;;;;;;;11.30;9.50;;;13.40;99.90;;;;;;5030308;28;20109;-57
2022/08/30 04:33:06;;;;;;;11.38;10.25;;;13.40;99.90;;;;;;5048706;28;20044;-57
2022/08/30 04:35:32;;;;;;;11.85;10.55;;;13.40;99.90;;;;;;5033588;28;20045;-57
2022/08/30 04:37:58;;;;;;;11.35;10.25;;;13.40;99.90;;;;;;5033962;28;20063;-56
2022/08/30 04:40:24;;;;;;;11.93;10.75;;;13.40;99.90;;;;;;5032900;28;20470;-57
2022/08/30 04:42:55;;;;;;;11.63;10.30;;;13.40;99.90;;;;;;5033915;28;20803;-57
2022/08/30 04:45:21;;;;;;;12.23;11.00;;;13.30;99.90;;;;;;5029360;28;20049;-57
2022/08/30 04:47:47;;;;;;;11.95;10.65;;;13.30;99.90;;;;;;5045591;28;20048;-57
2022/08/30 04:50:17;;;;;;;12.38;10.73;;;13.30;99.90;;;;;;5031282;28;20060;-48
2022/08/30 04:52:43;;;;;;;12.52;11.32;;;13.30;99.90;;;;;;5025754;28;20120;-49
2022/08/30 04:55:10;;;;;;;12.05;10.95;;;13.20;99.90;;;;;;5031360;28;20051;-50
2022/08/30 04:57:37;;;;;;;12.48;11.32;;;13.30;99.90;;;;;;5001972;28;20045;-56
2022/08/30 05:00:10;;;;;;;12.48;11.27;;;13.20;99.90;;;;;;5045208;28;20049;-56
2022/08/30 05:02:37;;;;;;;12.40;10.57;;;13.30;99.90;;;;;;5035915;28;20133;-57
2022/08/30 05:07:49;;;;;;;13.23;11.80;;;13.20;99.90;;;;;;5030105;28;20574;-58
2022/08/30 05:10:15;;;;;;;13.63;12.38;;;13.20;99.90;;;;;;5042784;28;20120;-58
2022/08/30 05:12:42;;;;;;;13.30;11.90;;;13.20;99.90;;;;;;5023043;28;20080;-58
2022/08/30 05:15:10;;;;;;;14.68;12.48;;;13.20;99.90;;;;;;5040350;28;20053;-57
2022/08/30 05:17:38;;;;;;;13.38;11.98;;;13.20;99.90;;;;;;5026890;28;20057;-57
2022/08/30 05:20:06;;;;;;;14.10;12.80;;;13.20;99.90;;;;;;5017501;28;20049;-58
2022/08/30 05:22:35;;;;;;;14.93;13.38;;;13.20;99.90;;;;;;5023951;28;20049;-60
2022/08/30 05:25:03;;;;;;;13.55;12.10;;;13.20;99.90;;;;;;5043064;28;20048;-58
2022/08/30 05:27:30;;;;;;;13.93;12.52;;;13.20;99.90;;;;;;5033610;28;20519;-57
2022/08/30 05:29:56;;;;;;;14.20;12.80;;;13.20;99.90;;;;;;5030264;28;20067;-57
2022/08/30 05:32:25;;;;;;;15.32;12.80;;;13.30;99.90;;;;;;5010706;28;20076;-49
2022/08/30 05:34:51;;;;;;;14.73;12.75;;;13.30;99.90;;;;;;5032465;28;20127;-50
2022/08/30 05:37:17;;;;;;;13.38;12.07;;;13.30;99.90;;;;;;5029281;28;20058;-49
2022/08/30 05:39:44;;;;;;;14.32;12.48;;;13.30;99.90;;;;;;5032399;28;20041;-57
2022/08/30 05:42:13;;;;;;;14.60;12.40;;;13.40;99.90;;;;;;5032503;28;20083;-57
2022/08/30 05:44:39;;;;;;;12.88;11.57;;;13.50;99.90;;;;;;5025838;28;20045;-58
2022/08/30 05:47:05;;;;;;;12.48;11.20;;;13.60;99.90;;;;;;5032058;28;20047;-49
2022/08/30 05:49:31;;;;;;;12.98;11.77;;;13.70;99.90;;;;;;5049301;28;20048;-52
2022/08/30 05:51:57;;;;;;;11.43;9.75;;;13.80;99.90;;;;;;5048798;28;20465;-46
2022/08/30 05:54:23;;;;;;;10.65;9.45;;;13.90;99.90;;;;;;5032894;28;20049;-58
2022/08/30 05:56:50;;;;;;;11.57;9.48;;;14.00;99.90;;;;;;5029072;28;20186;-49
2022/08/30 05:59:16;;;;;;;10.98;7.60;;;14.10;99.90;;;;;;5039767;28;20305;-50
2022/08/30 06:01:45;;;;;;;9.02;8.13;;;14.30;99.90;;;;;;5031028;28;20056;-52
2022/08/30 06:04:12;;;;;;;9.15;7.28;;;14.30;99.90;;;;;;5034244;28;20566;-56
2022/08/30 06:06:41;;;;;;;8.27;6.85;;;14.50;99.90;;;;;;5051323;28;20084;-48
2022/08/30 06:09:09;;;;;;;8.80;7.10;;;14.70;99.90;;;;;;5012721;28;20029;-56
2022/08/30 06:11:36;;;;;;;9.40;6.93;;;14.80;99.90;;;;;;5030568;28;20556;-49
2022/08/30 06:14:03;;;;;;;6.88;5.97;;;15.00;99.90;;;;;;5049075;28;20063;-50
2022/08/30 06:16:29;;;;;;;8.57;7.00;;;15.10;99.90;;;;;;5032234;28;20586;-47
2022/08/30 06:18:57;;;;;;;7.32;5.47;;;15.20;99.90;;;;;;5013345;28;20052;-48
2022/08/30 06:21:27;;;;;;;6.57;5.35;;;15.30;99.90;;;;;;5028093;28;20045;-46
2022/08/30 06:23:55;;;;;;;7.88;6.70;;;15.60;99.90;;;;;;5020176;28;20048;-49
2022/08/30 06:26:21;;;;;;;7.63;6.28;;;15.70;99.90;;;;;;5025790;28;20071;-45
2022/08/30 06:28:48;;;;;;;10.23;7.05;;;15.90;99.90;;;;;;5027934;28;20441;-44
2022/08/30 06:31:17;;;;;;;7.90;4.32;;;16.10;99.90;;;;;;5029967;28;20173;-47
2022/08/30 06:33:43;;;;;;;8.25;5.18;;;16.30;99.90;;;;;;5025926;28;20604;-45
2022/08/30 06:36:19;;;;;;;5.85;3.85;;;16.40;99.90;;;;;;5030054;28;20392;-45
2022/08/30 06:38:49;;;;;;;7.75;6.25;;;16.60;99.90;;;;;;5045304;28;20049;-57
2022/08/30 06:41:18;;;;;;;8.25;6.22;;;16.70;99.90;;;;;;5029471;28;20386;-45
2022/08/30 06:43:46;;;;;;;5.57;3.28;;;16.80;99.90;;;;;;5045050;28;20419;-58
2022/08/30 06:46:14;;;;;;;5.65;2.88;;;17.00;99.90;;;;;;5028882;28;20407;-47
2022/08/30 06:48:43;;;;;;;8.85;6.40;;;17.20;99.90;;;;;;5032201;28;20033;-46
2022/08/30 06:51:10;;;;;;;9.35;7.32;;;17.40;99.90;;;;;;5047117;28;20040;-46
2022/08/30 06:53:36;;;;;;;9.57;5.57;;;17.60;99.90;;;;;;5029796;28;20385;-49
2022/08/30 06:56:05;;;;;;;5.50;3.65;;;17.90;99.90;;;;;;5035217;28;20048;-47
2022/08/30 06:58:33;;;;;;;6.72;5.20;;;18.00;99.90;;;;;;5021483;28;20036;-57
2022/08/30 07:00:59;;;;;;;17.90;16.02;;;18.20;99.90;;;;;;5025783;28;20124;-58
2022/08/30 07:03:26;;;;;;;3.65;1.95;;;18.50;99.90;;;;;;5021967;28;20053;-58
2022/08/30 07:05:54;;;;;;;4.43;2.10;;;18.60;99.90;;;;;;5044342;28;20582;-47
2022/08/30 07:08:21;;;;;;;6.07;4.03;;;18.90;99.90;;;;;;4976897;28;20587;-45
2022/08/30 07:10:49;;;;;;;12.52;10.00;;;19.00;99.90;;;;;;5046904;28;20052;-57
2022/08/30 07:13:16;;;;;;;4.28;2.05;;;19.20;99.90;;;;;;5010303;28;20776;-57
2022/08/30 07:15:43;;;;;;;11.27;9.75;;;19.30;99.90;;;;;;5025531;28;20043;-57
2022/08/30 07:20:57;;;;;;;5.13;2.85;;;19.80;99.90;;;;;;5033578;28;20371;-45
2022/08/30 07:23:23;;;;;;;5.85;1.98;;;20.10;99.90;;;;;;5043093;28;20767;-46
2022/08/30 07:25:49;;;;;;;9.48;7.03;;;20.30;99.90;;;;;;5031735;28;20076;-57
2022/08/30 07:28:15;;;;;;;6.20;2.38;;;20.50;99.90;;;;;;5032807;28;20049;-58
2022/08/30 07:30:42;;;;;;;4.47;2.78;;;20.60;99.90;;;;;;5029652;28;20048;-57
2022/08/30 07:33:08;;;;;;;4.07;1.80;;;21.10;99.90;;;;;;5033442;28;20041;-58
2022/08/30 07:35:36;;;;;;;4.43;2.53;;;21.20;99.90;;;;;;5026596;28;20041;-47
2022/08/30 07:38:02;;;;;;;8.10;3.78;;;21.40;99.90;;;;;;5027532;28;20056;-49
2022/08/30 07:40:28;;;;;;;7.78;4.93;;;21.80;99.90;;;;;;5045858;28;20057;-46
2022/08/30 07:42:54;;;;;;;5.45;1.92;;;22.10;99.90;;;;;;5047550;28;20127;-44
2022/08/30 07:45:20;;;;;;;21.08;18.80;;;22.00;99.90;;;;;;5034394;28;20033;-44
2022/08/30 07:47:46;;;;;;;11.30;7.22;;;22.30;99.90;;;;;;5011526;28;20052;-56
2022/08/30 07:50:12;;;;;;;5.43;2.03;;;22.50;99.90;;;;;;5036453;28;20049;-57
2022/08/30 07:52:38;;;;;;;4.20;1.58;;;22.80;99.90;;;;;;5032422;28;20041;-56
2022/08/30 07:55:05;;;;;;;10.25;6.65;;;23.10;99.90;;;;;;5033859;28;20049;-57
2022/08/30 07:57:33;;;;;;;8.55;6.28;;;23.40;99.90;;;;;;5032190;28;20053;-58
2022/08/30 08:00:00;;;;;;;10.52;7.45;;;23.30;99.90;;;;;;5042166;28;20880;-58
2022/08/30 08:02:26;;;;;;;5.47;3.33;;;23.00;99.70;;;;;;5032205;28;20462;-58
2022/08/30 08:04:52;;;;;;;18.90;15.98;;;23.30;98.70;;;;;;5028365;28;20573;-50
2022/08/30 08:07:18;;;;;;;7.68;5.35;;;23.30;98.90;;;;;;5025161;28;20102;-46
2022/08/30 08:09:45;;;;;;;7.45;3.47;;;23.50;98.40;;;;;;5026512;28;20049;-45
2022/08/30 08:12:14;;;;;;;12.48;6.78;;;23.60;97.30;;;;;;5027847;28;20052;-48
2022/08/30 08:14:40;;;;;;;6.75;2.05;;;23.70;97.00;;;;;;5008159;28;20826;-48
2022/08/30 08:17:07;;;;;;;9.68;8.52;;;23.90;94.80;;;;;;5030540;28;20471;-46
2022/08/30 08:19:33;;;;;;;6.20;2.67;;;23.70;95.40;;;;;;5029206;28;20056;-50
2022/08/30 08:21:59;;;;;;;6.60;4.85;;;23.80;94.60;;;;;;5009176;28;20049;-46
2022/08/30 08:24:26;;;;;;;12.05;10.82;;;24.30;94.90;;;;;;5041886;28;20122;-48
2022/08/30 08:26:53;;;;;;;7.80;5.93;;;24.30;92.80;;;;;;5024750;28;20437;-47
2022/08/30 08:29:20;;;;;;;10.45;7.63;;;24.80;93.70;;;;;;5015489;28;20054;-46
2022/08/30 08:31:47;;;;;;;23.73;21.52;;;25.00;91.30;;;;;;5043786;28;20040;-46
2022/08/30 08:34:14;;;;;;;7.95;6.55;;;24.90;90.20;;;;;;5026561;28;20049;-49
2022/08/30 08:36:40;;;;;;;9.35;7.72;;;25.40;84.10;;;;;;5045753;28;20049;-47
2022/08/30 08:39:08;;;;;;;5.68;4.20;;;25.30;81.30;;;;;;5034008;28;20045;-49
2022/08/30 08:41:52;;;;;;;3.30;1.63;;;25.30;76.90;;;;;;5036196;28;20593;-47
2022/08/30 08:44:38;;;;;;;6.05;4.65;;;25.40;70.80;;;;;;5048097;28;20558;-48
2022/08/30 08:47:21;;;;;;;6.88;5.35;;;25.50;70.20;;;;;;5027063;28;20041;-50
2022/08/30 08:49:53;;;;;;;7.20;5.55;;;25.70;69.90;;;;;;5034071;28;20056;-47
2022/08/30 08:55:15;;;;;;;3.88;2.70;;;26.00;69.30;;;;;;5034546;28;20052;-48
2022/08/30 08:57:41;;;;;;;7.53;4.82;;;26.00;66.40;;;;;;5028418;28;20504;-48
2022/08/30 09:00:10;;;;;;;7.00;5.25;;;26.00;65.90;;;;;;5036390;28;20044;-46
2022/08/30 09:03:07;;;;;;;5.55;2.35;;;26.20;67.00;;;;;;5049303;28;20052;-47
2022/08/30 09:05:37;;;;;;;5.43;4.55;;;26.40;62.70;;;;;;5040038;28;20174;-59
2022/08/30 09:08:07;;;;;;;6.50;4.07;;;26.70;65.40;;;;;;5045615;28;20077;-50
2022/08/30 09:10:34;;;;;;;6.00;1.80;;;26.70;61.90;;;;;;5040908;28;20036;-47
2022/08/30 09:13:01;;;;;;;5.10;3.85;;;26.90;61.20;;;;;;5027338;28;20534;-46
2022/08/30 09:15:29;;;;;;;3.72;2.30;;;26.60;60.30;;;;;;5037803;28;20077;-53
2022/08/30 09:18:02;;;;;;;3.72;1.80;;;26.90;59.30;;;;;;5027416;28;20110;-51
2022/08/30 09:20:36;;;;;;;6.22;5.00;;;27.20;57.60;;;;;;5012089;28;20135;-50
2022/08/30 09:23:14;;;;;;;5.80;2.88;;;27.10;57.80;;;;;;5025339;28;20570;-48
2022/08/30 09:25:53;;;;;;;5.97;4.82;;;27.20;55.70;;;;;;5033954;28;20073;-48
2022/08/30 09:28:24;;;;;;;2.20;1.77;;;26.70;55.20;;;;;;5030731;28;20084;-49
2022/08/30 09:31:06;;;;;;;2.60;1.10;;;26.90;55.90;;;;;;5046374;28;20053;-49
2022/08/30 09:33:33;;;;;;;2.03;1.10;;;27.10;55.60;;;;;;5044703;28;20124;-50
2022/08/30 09:36:17;;;;;;;4.05;2.90;;;27.10;55.30;;;;;;5032091;28;20045;-45
2022/08/30 09:38:44;;;;;;;6.38;2.50;;;26.80;53.60;;;;;;5029231;28;20041;-49
2022/08/30 09:41:48;;;;;;;6.07;4.93;;;27.00;55.60;;;;;;5030492;28;20049;-47
2022/08/30 09:44:22;;;;;;;2.75;1.77;;;27.60;53.80;;;;;;4989556;28;20309;-48
2022/08/30 09:46:57;;;;;;;2.78;1.60;;;27.90;54.30;;;;;;5025530;28;20462;-49
2022/08/30 09:49:30;;;;;;;5.35;1.38;;;28.10;53.50;;;;;;5020149;28;20045;-48
2022/08/30 09:52:11;;;;;;;3.28;1.25;;;27.80;54.30;;;;;;5030123;28;20048;-49
2022/08/30 09:55:04;;;;;;;4.00;2.42;;;28.30;55.30;;;;;;5051668;28;20045;-46
2022/08/30 09:57:54;;;;;;;5.28;1.95;;;28.40;53.50;;;;;;5032121;28;20391;-48
2022/08/30 10:00:22;;;;;;;;;;;28.40;51.80;;;;;;5026902;28;20045;-58
2022/08/30 10:03:06;;;;;;;3.97;2.47;;;28.60;51.90;;;;;;5027305;28;19929;-59
2022/08/30 10:05:33;;;;;;;4.80;2.63;;;28.70;51.70;;;;;;5028581;28;20042;-59
2022/08/30 10:08:24;;;;;;;2.65;1.25;;;28.70;51.40;;;;;;5033629;28;20052;-59
2022/08/30 10:11:01;;;;;;;5.10;3.67;;;28.70;50.00;;;;;;5051260;28;20152;-58
2022/08/30 10:13:46;;;;;;;3.20;2.10;;;29.00;50.30;;;;;;5031464;28;20175;-58
2022/08/30 10:16:38;;;;;;;3.35;1.60;;;28.60;48.90;;;;;;5042998;28;20048;-59
2022/08/30 10:19:22;;;;;;;4.47;1.77;;;28.60;50.50;;;;;;5036794;28;20053;-59
2022/08/30 10:22:12;;;;;;;2.50;1.67;;;29.40;49.30;;;;;;5035938;28;20048;-59
2022/08/30 10:24:45;;;;;;;5.38;2.40;;;29.30;48.80;;;;;;5033286;28;20045;-59
2022/08/30 10:27:26;;;;;;;1.70;1.40;;;29.40;48.60;;;;;;5024628;28;20340;-59
2022/08/30 10:30:04;;;;;;;1.83;1.50;;;29.20;47.10;;;;;;5035531;28;20438;-59
2022/08/30 10:33:01;;;;;;;3.58;1.40;;;28.90;48.00;;;;;;5040090;28;20049;-60
2022/08/30 10:35:32;;;;;;;3.15;1.70;;;29.00;48.20;;;;;;5014371;28;20128;-60
2022/08/30 10:38:35;;;;;;;4.03;1.40;;;29.30;48.50;;;;;;5026940;28;20131;-60
2022/08/30 10:41:32;;;;;;;3.35;1.38;;;29.60;47.60;;;;;;5018246;28;20798;-60
2022/08/30 10:44:12;;;;;;;3.70;1.70;;;29.90;48.00;;;;;;5028151;28;20060;-59
2022/08/30 10:46:41;;;;;;;2.83;1.45;;;30.00;47.60;;;;;;5045525;28;20063;-59
2022/08/30 10:49:16;;;;;;;4.05;1.40;;;30.00;47.90;;;;;;5041909;28;20049;-61
2022/08/30 10:51:49;;;;;;;3.92;1.33;;;29.90;46.40;;;;;;5014092;28;20041;-60
2022/08/30 10:54:33;;;;;;;2.88;1.02;;;30.30;45.60;;;;;;5028475;28;20048;-62
2022/08/30 10:56:59;;;;;;;2.13;1.50;;;30.40;46.60;;;;;;5033139;28;20049;-59
2022/08/30 10:59:26;;;;;;;2.95;1.30;;;30.40;46.80;;;;;;5027905;28;20605;-46
2022/08/30 11:02:19;;;;;;;4.28;1.92;;;30.30;46.00;;;;;;5028729;28;20061;-47
2022/08/30 11:05:04;;;;;;;2.45;1.02;;;30.90;45.80;;;;;;5026323;28;20140;-52
2022/08/30 11:07:42;;;;;;;3.45;1.40;;;30.40;45.20;;;;;;5030668;28;20048;-47
2022/08/30 11:10:24;;;;;;;6.28;1.55;;;30.40;44.10;;;;;;5029097;28;20080;-46
2022/08/30 11:13:10;;;;;;;1.70;0.70;;;31.00;44.60;;;;;;5032926;28;20041;-50
2022/08/30 11:16:14;;;;;;;2.72;1.13;;;30.60;43.20;;;;;;5051147;28;20049;-49
2022/08/30 11:18:56;;;;;;;4.93;1.50;;;30.70;42.80;;;;;;5029217;28;20089;-56
2022/08/30 11:21:38;;;;;;;3.20;1.45;;;30.70;43.50;;;;;;5037284;28;20415;-49
2022/08/30 11:24:24;;;;;;;2.05;1.00;;;30.60;43.30;;;;;;5049579;28;20607;-49
2022/08/30 11:26:56;;;;;;;1.95;0.85;;;30.40;42.60;;;;;;5050298;28;20392;-49
2022/08/30 11:29:28;;;;;;;3.95;1.35;;;30.90;42.50;;;;;;5027972;28;20067;-50
2022/08/30 11:32:14;;;;;;;3.17;1.45;;;30.60;42.50;;;;;;5043196;28;20057;-50
2022/08/30 11:34:43;;;;;;;3.65;1.30;;;30.50;41.30;;;;;;5024744;28;20061;-50
2022/08/30 11:37:36;;;;;;;2.35;1.10;;;30.40;42.80;;;;;;5032318;28;20131;-60
2022/08/30 11:40:16;;;;;;;4.95;1.70;;;30.60;43.40;;;;;;5041684;28;20470;-60
2022/08/30 11:42:48;;;;;;;2.58;0.88;;;30.50;42.90;;;;;;5031271;28;20500;-60
2022/08/30 11:45:23;;;;;;;3.20;1.20;;;30.50;43.30;;;;;;5046738;28;20044;-60
2022/08/30 11:47:53;;;;;;;2.83;1.10;;;30.40;43.00;;;;;;5027807;28;20068;-59
2022/08/30 11:50:27;;;;;;;3.83;1.20;;;30.60;44.30;;;;;;5051549;28;20041;-48
2022/08/30 11:53:28;;;;;;;1.73;1.00;;;30.90;42.60;;;;;;5032846;28;20080;-50
2022/08/30 11:56:22;;;;;;;1.63;0.90;;;31.20;42.40;;;;;;5044909;28;20053;-49
2022/08/30 11:59:09;;;;;;;3.30;1.05;;;31.00;41.90;;;;;;5048175;28;20507;-49
2022/08/30 12:01:38;;;;;;;2.05;1.23;;;31.40;42.30;;;;;;5033034;28;20516;-47
2022/08/30 12:04:18;;;;;;;2.00;1.10;;;31.00;42.60;;;;;;5025232;28;20618;-51
2022/08/30 12:06:55;;;;;;;3.70;1.25;;;31.10;42.50;;;;;;5048172;28;20053;-49
2022/08/30 12:09:25;;;;;;;2.03;0.93;;;31.00;43.00;;;;;;5051958;28;20519;-49
2022/08/30 12:12:04;;;;;;;3.50;1.33;;;31.10;43.10;;;;;;5031887;28;20052;-50
2022/08/30 12:14:43;;;;;;;4.95;1.90;;;31.50;42.90;;;;;;5033447;28;20140;-51
2022/08/30 12:20:46;;;;;;;2.50;1.10;;;31.10;42.90;;;;;;5022478;28;20048;-50
2022/08/30 12:23:40;;;;;;;2.85;1.08;;;31.10;43.90;;;;;;5052421;28;20068;-51
2022/08/30 12:26:10;;;;;;;2.92;1.00;;;31.40;41.30;;;;;;5042540;28;20049;-50
2022/08/30 12:28:37;;;;;;;4.40;0.90;;;30.80;42.30;;;;;;5032340;28;20523;-49
2022/08/30 12:31:11;;;;;;;2.45;1.15;;;31.20;42.30;;;;;;5034333;28;20130;-50
2022/08/30 12:33:43;;;;;;;3.67;1.15;;;31.10;42.10;;;;;;5029122;28;20080;-50
2022/08/30 12:36:40;;;;;;;3.05;0.90;;;31.50;41.70;;;;;;5030900;28;20056;-51
2022/08/30 12:39:18;;;;;;;2.35;1.02;;;31.90;40.80;;;;;;5025328;28;20078;-55
2022/08/30 12:41:44;;;;;;;1.67;1.08;;;31.50;41.30;;;;;;5029915;28;20537;-50
2022/08/30 12:44:18;;;;;;;4.53;1.15;;;31.90;41.90;;;;;;5031294;28;20044;-50
2022/08/30 12:46:48;;;;;;;3.15;1.02;;;32.50;41.90;;;;;;5014293;28;20040;-48
2022/08/30 12:49:17;;;;;;;5.05;1.10;;;32.00;41.50;;;;;;5033481;28;20126;-50
2022/08/30 12:51:43;;;;;;;3.22;1.00;;;32.30;41.70;;;;;;5035990;28;20051;-51
2022/08/30 12:54:20;;;;;;;3.30;1.00;;;32.60;41.10;;;;;;5013109;28;20559;-49
2022/08/30 12:56:51;;;;;;;2.50;0.80;;;32.60;42.20;;;;;;5038495;28;20056;-50
2022/08/30 12:59:57;;;;;;;2.42;0.90;;;32.20;41.90;;;;;;5046618;28;20131;-50
2022/08/30 13:02:26;;;;;;;2.08;0.90;;;32.30;41.70;;;;;;5027070;28;20098;-49
2022/08/30 13:04:54;;;;;;;1.98;0.80;;;30.90;41.30;;;;;;5034826;28;20044;-51
2022/08/30 13:07:33;;;;;;;2.03;0.80;;;30.40;42.40;;;;;;5044807;28;20111;-49
2022/08/30 13:10:19;;;;;;;4.47;0.60;;;31.30;42.20;;;;;;5025158;28;20107;-51
2022/08/30 13:13:05;;;;;;;2.30;0.90;;;31.70;42.40;;;;;;5030163;28;20072;-51
2022/08/30 13:15:41;;;;;;;3.25;1.33;;;31.10;42.20;;;;;;5032446;28;20476;-49